createdAt,value
2022-10-22T04:50:46.834Z,90.39
2022-10-22T04:51:47.961Z,90.08
2022-10-22T04:52:47.939Z,89.07
2022-10-22T04:53:47.910Z,89.32
2022-10-22T04:54:47.905Z,89.42
2022-10-22T04:55:47.912Z,90.23
2022-10-22T04:56:47.901Z,89.32
2022-10-22T04:57:47.893Z,88.92
2022-10-22T04:58:47.889Z,89.01
2022-10-22T04:59:47.882Z,89.42
2022-10-22T05:00:47.954Z,89.56
2022-10-22T05:01:47.867Z,89.32
2022-10-22T05:02:48.849Z,88.92
2022-10-22T05:03:47.854Z,88.81
2022-10-22T05:04:47.845Z,89.01
2022-10-22T05:05:47.922Z,89.16
2022-10-22T05:06:47.847Z,89.61
2022-10-22T05:07:47.830Z,89.81
2022-10-22T05:08:47.877Z,90.21
2022-10-22T05:09:47.861Z,89.56
2022-10-22T05:10:47.820Z,89.66
2022-10-22T05:11:47.816Z,89.36
2022-10-22T05:12:47.798Z,89.70
2022-10-22T05:13:48.569Z,90.11
2022-10-22T05:14:47.821Z,89.91
2022-10-22T05:15:47.782Z,90.98
2022-10-22T05:16:48.275Z,90.88
2022-10-22T05:17:47.789Z,90.11
2022-10-22T05:18:47.758Z,89.36
2022-10-22T05:19:47.750Z,89.70
2022-10-22T05:20:47.779Z,89.40
2022-10-22T05:21:47.787Z,90.72
2022-10-22T05:22:47.744Z,90.52
2022-10-22T05:23:47.729Z,90.86
2022-10-22T05:24:47.766Z,91.06
2022-10-22T05:25:47.721Z,91.47
2022-10-22T05:26:47.713Z,91.02
2022-10-22T05:27:47.702Z,90.82
2022-10-22T05:28:47.738Z,90.58
2022-10-22T05:29:47.697Z,89.97
2022-10-22T05:30:47.685Z,89.66
2022-10-22T05:31:47.681Z,89.76
2022-10-22T05:32:47.695Z,89.87
2022-10-22T05:33:47.681Z,90.07
2022-10-22T05:34:47.675Z,89.46
2022-10-22T05:35:47.674Z,90.01
2022-10-22T05:36:47.662Z,90.17
2022-10-22T05:37:47.696Z,89.46
2022-10-22T05:38:47.625Z,89.36
2022-10-22T05:39:47.638Z,89.76
2022-10-22T05:40:47.641Z,89.46
2022-10-22T05:41:47.617Z,89.76
2022-10-22T05:42:47.617Z,90.11
2022-10-22T05:43:47.601Z,90.31
2022-10-22T05:44:47.597Z,90.58
2022-10-22T05:45:47.606Z,90.78
2022-10-22T05:46:47.606Z,90.23
2022-10-22T05:47:47.593Z,89.72
2022-10-22T05:48:47.582Z,89.32
2022-10-22T05:49:47.581Z,89.17
2022-10-22T05:50:47.570Z,89.72
2022-10-22T05:51:47.557Z,89.32
2022-10-22T05:52:47.553Z,89.83
2022-10-22T05:53:47.559Z,89.52
2022-10-22T05:54:47.537Z,89.52
2022-10-22T05:55:47.526Z,89.28
2022-10-22T05:56:47.526Z,89.28
2022-10-22T05:57:47.514Z,89.42
2022-10-22T05:58:47.567Z,89.37
2022-10-22T05:59:47.499Z,89.48
2022-10-22T06:00:47.493Z,89.62
2022-10-22T06:01:47.535Z,90.12
2022-10-22T06:02:47.493Z,90.28
2022-10-22T06:03:47.514Z,90.79
2022-10-22T06:04:47.496Z,90.43
2022-10-22T06:05:47.478Z,92.09
2022-10-22T06:06:47.536Z,91.94
2022-10-22T06:07:47.460Z,91.64
2022-10-22T06:08:47.537Z,92.29
2022-10-22T06:09:47.460Z,92.14
2022-10-22T06:10:47.444Z,92.25
2022-10-22T06:11:47.450Z,91.94
2022-10-22T06:12:47.427Z,91.64
2022-10-22T06:13:47.436Z,92.10
2022-10-22T06:14:47.435Z,92.00
2022-10-22T06:15:47.419Z,90.69
2022-10-22T06:16:47.413Z,90.69
2022-10-22T06:17:47.403Z,90.89
2022-10-22T06:18:47.395Z,90.24
2022-10-22T06:19:47.406Z,90.55
2022-10-22T06:20:47.395Z,90.34
2022-10-22T06:21:47.381Z,90.65
2022-10-22T06:22:47.388Z,90.14
2022-10-22T06:23:47.374Z,91.39
2022-10-22T06:24:47.379Z,91.39
2022-10-22T06:25:47.358Z,92.30
2022-10-22T06:26:47.351Z,92.61
2022-10-22T06:27:47.355Z,92.71
2022-10-22T06:28:47.347Z,91.80
2022-10-22T06:29:47.352Z,92.21
2022-10-22T06:30:47.319Z,92.65
2022-10-22T06:31:47.329Z,92.76
2022-10-22T06:32:47.310Z,92.65
2022-10-22T06:33:47.322Z,91.90
2022-10-22T06:34:47.319Z,92.41
2022-10-22T06:35:48.054Z,92.21
2022-10-22T06:36:47.296Z,92.05
2022-10-22T06:37:47.286Z,91.90
2022-10-22T06:38:47.274Z,91.90
2022-10-22T06:39:47.270Z,91.34
2022-10-22T06:40:47.254Z,91.09
2022-10-22T06:41:47.247Z,90.79
2022-10-22T06:42:47.262Z,90.69
2022-10-22T06:43:47.231Z,90.69
2022-10-22T06:44:47.238Z,90.59
2022-10-22T06:45:47.266Z,90.23
2022-10-22T06:46:47.213Z,90.08
2022-10-22T06:47:47.226Z,90.49
2022-10-22T06:48:47.204Z,90.65
2022-10-22T06:49:47.198Z,88.83
2022-10-22T06:50:47.210Z,89.03
2022-10-22T06:51:47.189Z,88.93
2022-10-22T06:52:47.173Z,88.97
2022-10-22T06:53:47.173Z,88.93
2022-10-22T06:54:47.157Z,88.93
2022-10-22T06:55:47.197Z,88.73
2022-10-22T06:56:47.170Z,88.57
2022-10-22T06:57:47.162Z,89.17
2022-10-22T06:58:47.138Z,88.87
2022-10-22T06:59:47.141Z,89.17
2022-10-22T07:00:47.176Z,89.37
2022-10-22T07:01:47.202Z,88.73
2022-10-22T07:02:47.114Z,89.03
2022-10-22T07:03:47.109Z,88.17
2022-10-22T07:04:47.113Z,89.03
2022-10-22T07:05:47.241Z,88.53
2022-10-22T07:06:47.102Z,88.32
2022-10-22T07:07:47.088Z,87.92
2022-10-22T07:08:47.161Z,87.78
2022-10-22T07:09:47.113Z,87.58
2022-10-22T07:10:47.197Z,86.57
2022-10-22T07:11:47.068Z,87.18
2022-10-22T07:12:47.062Z,87.21
2022-10-22T07:13:47.072Z,87.32
2022-10-22T07:14:47.047Z,87.12
2022-10-22T07:15:47.113Z,87.21
2022-10-22T07:16:47.050Z,86.87
2022-10-22T07:17:47.028Z,86.57
2022-10-22T07:18:47.065Z,86.36
2022-10-22T07:19:49.698Z,85.66
2022-10-22T07:20:48.003Z,85.31
2022-10-22T07:21:47.019Z,84.05
2022-10-22T07:22:46.987Z,79.13
2022-10-22T07:23:47.014Z,73.90
2022-10-22T07:24:46.975Z,71.96
2022-10-22T07:25:46.993Z,67.43
2022-10-22T07:26:47.027Z,64.24
2022-10-22T07:27:46.952Z,65.90
2022-10-22T07:28:46.979Z,65.53
2022-10-22T07:29:46.951Z,65.47
2022-10-22T07:30:46.953Z,63.85
2022-10-22T07:31:46.949Z,63.19
2022-10-22T07:32:46.917Z,59.59
2022-10-22T07:33:46.938Z,58.07
2022-10-22T07:34:46.908Z,57.87
2022-10-22T07:35:46.916Z,57.93
2022-10-22T07:36:46.901Z,58.62
2022-10-22T07:37:46.923Z,58.18
2022-10-22T07:38:46.910Z,60.50
2022-10-22T07:39:46.878Z,63.58
2022-10-22T07:40:46.921Z,61.63
2022-10-22T07:41:46.919Z,58.50
2022-10-22T07:42:46.953Z,55.19
2022-10-22T07:43:46.868Z,56.21
2022-10-22T07:44:46.856Z,56.13
2022-10-22T07:45:46.866Z,55.21
2022-10-22T07:46:48.909Z,54.64
2022-10-22T07:47:46.818Z,52.76
2022-10-22T07:48:46.854Z,51.03
2022-10-22T07:49:46.811Z,50.54
2022-10-22T07:50:46.822Z,52.78
2022-10-22T07:51:46.863Z,54.60
2022-10-22T07:52:46.821Z,55.24
2022-10-22T07:53:46.794Z,55.39
2022-10-22T07:54:46.792Z,56.16
2022-10-22T07:55:46.781Z,57.60
2022-10-22T07:56:46.773Z,60.96
2022-10-22T07:57:46.780Z,63.14
2022-10-22T07:58:46.998Z,65.93
2022-10-22T07:59:46.773Z,67.46
2022-10-22T08:00:47.771Z,69.49
2022-10-22T08:01:46.783Z,71.16
2022-10-22T08:02:47.796Z,72.13
2022-10-22T08:03:47.614Z,75.01
2022-10-22T08:04:48.233Z,76.32
2022-10-22T08:05:46.726Z,75.82
2022-10-22T08:06:47.433Z,76.05
2022-10-22T08:07:47.577Z,77.03
2022-10-22T08:08:46.747Z,78.23
2022-10-22T08:09:46.696Z,79.04
2022-10-22T08:10:46.687Z,78.98
2022-10-22T08:11:46.698Z,79.64
2022-10-22T08:12:46.679Z,78.84
2022-10-22T08:13:46.693Z,78.98
2022-10-22T08:14:46.657Z,79.88
2022-10-22T08:15:46.656Z,79.99
2022-10-22T08:16:46.632Z,80.19
2022-10-22T08:17:46.670Z,80.08
2022-10-22T08:18:46.626Z,78.98
2022-10-22T08:19:46.647Z,80.66
2022-10-22T08:20:46.626Z,80.32
2022-10-22T08:21:46.599Z,81.27
2022-10-22T08:22:46.608Z,81.17
2022-10-22T08:23:46.603Z,81.67
2022-10-22T08:24:46.632Z,81.47
2022-10-22T08:25:46.597Z,80.93
2022-10-22T08:26:46.594Z,81.27
2022-10-22T08:27:46.580Z,80.73
2022-10-22T08:28:46.572Z,81.23
2022-10-22T08:29:47.175Z,81.13
2022-10-22T08:30:46.560Z,80.52
2022-10-22T08:31:46.543Z,80.49
2022-10-22T08:32:47.680Z,79.58
2022-10-22T08:33:46.554Z,80.69
2022-10-22T08:34:46.538Z,81.09
2022-10-22T08:35:46.558Z,80.69
2022-10-22T08:36:46.521Z,80.12
2022-10-22T08:37:46.511Z,80.49
2022-10-22T08:38:46.494Z,80.58
2022-10-22T08:39:47.090Z,81.09
2022-10-22T08:40:46.540Z,80.19
2022-10-22T08:41:46.496Z,79.72
2022-10-22T08:42:46.478Z,80.73
2022-10-22T08:43:46.475Z,79.82
2022-10-22T08:44:46.452Z,80.43
2022-10-22T08:45:46.470Z,80.73
2022-10-22T08:46:46.525Z,80.08
2022-10-22T08:47:47.088Z,80.89
2022-10-22T08:48:47.477Z,81.53
2022-10-22T08:49:46.422Z,80.69
2022-10-22T08:50:46.459Z,80.29
2022-10-22T08:51:46.441Z,80.99
2022-10-22T08:52:46.447Z,81.29
2022-10-22T08:53:46.391Z,81.26
2022-10-22T08:54:47.128Z,80.61
2022-10-22T08:55:46.420Z,78.60
2022-10-22T08:56:46.416Z,78.36
2022-10-22T08:57:48.720Z,79.14
2022-10-22T08:58:47.988Z,80.49
2022-10-22T08:59:46.409Z,79.68
2022-10-22T09:00:46.384Z,79.58
2022-10-22T09:01:46.360Z,79.71
2022-10-22T09:02:46.400Z,80.11
2022-10-22T09:03:46.432Z,80.01
2022-10-22T09:04:46.354Z,79.47
2022-10-22T09:05:46.377Z,78.90
2022-10-22T09:06:49.496Z,79.04
2022-10-22T09:07:47.334Z,80.19
2022-10-22T09:08:46.377Z,80.69
2022-10-22T09:09:46.293Z,81.23
2022-10-22T09:10:46.393Z,81.49
2022-10-22T09:11:46.336Z,80.79
2022-10-22T09:12:47.139Z,80.49
2022-10-22T09:13:46.269Z,80.99
2022-10-22T09:14:46.326Z,81.09
2022-10-22T09:15:47.370Z,80.11
2022-10-22T09:16:47.259Z,79.50
2022-10-22T09:17:46.234Z,79.37
2022-10-22T09:18:46.272Z,78.83
2022-10-22T09:19:46.246Z,78.73
2022-10-22T09:20:46.214Z,78.83
2022-10-22T09:21:46.226Z,78.53
2022-10-22T09:22:46.211Z,77.80
2022-10-22T09:23:46.222Z,79.61
2022-10-22T09:24:46.202Z,80.11
2022-10-22T09:25:46.202Z,79.91
2022-10-22T09:26:46.215Z,79.91
2022-10-22T09:27:46.166Z,80.21
2022-10-22T09:28:46.175Z,80.41
2022-10-22T09:29:46.154Z,80.01
2022-10-22T09:30:46.242Z,80.81
2022-10-22T09:31:46.214Z,79.71
2022-10-22T09:32:46.144Z,79.91
2022-10-22T09:33:46.165Z,79.47
2022-10-22T09:34:46.138Z,78.60
2022-10-22T09:35:46.133Z,79.87
2022-10-22T09:36:46.112Z,79.27
2022-10-22T09:37:46.102Z,79.81
2022-10-22T09:38:46.116Z,79.03
2022-10-22T09:39:46.083Z,77.72
2022-10-22T09:40:46.079Z,77.22
2022-10-22T09:41:46.109Z,77.52
2022-10-22T09:42:46.069Z,76.72
2022-10-22T09:43:46.056Z,77.62
2022-10-22T09:44:47.783Z,77.89
2022-10-22T09:45:47.044Z,77.59
2022-10-22T09:46:46.040Z,78.29
2022-10-22T09:48:01.081Z,77.59
2022-10-22T09:48:48.017Z,76.34
2022-10-22T09:49:46.019Z,77.09
2022-10-22T09:50:46.025Z,76.98
2022-10-22T09:51:46.007Z,77.09
2022-10-22T09:52:46.022Z,76.12
2022-10-22T09:53:46.034Z,77.06
2022-10-22T09:54:46.089Z,78.40
2022-10-22T09:55:46.038Z,79.30
2022-10-22T09:56:45.984Z,78.77
2022-10-22T09:57:46.221Z,78.12
2022-10-22T09:58:45.965Z,76.98
2022-10-22T09:59:46.053Z,77.48
2022-10-22T10:00:45.969Z,76.68
2022-10-22T10:01:45.969Z,77.70
2022-10-22T10:02:45.973Z,80.58
2022-10-22T10:03:45.941Z,80.39
2022-10-22T10:04:45.933Z,79.94
2022-10-22T10:05:45.938Z,79.00
2022-10-22T10:06:45.927Z,78.66
2022-10-22T10:07:45.927Z,78.15
2022-10-22T10:08:45.972Z,76.25
2022-10-22T10:09:45.878Z,75.74
2022-10-22T10:10:45.903Z,75.45
2022-10-22T10:11:45.890Z,76.28
2022-10-22T10:13:45.864Z,76.86
2022-10-22T10:14:45.855Z,76.76
2022-10-22T10:15:45.855Z,76.72
2022-10-22T10:16:45.845Z,76.92
2022-10-22T10:17:45.840Z,75.95
2022-10-22T10:18:45.859Z,76.96
2022-10-22T10:19:45.811Z,77.00
2022-10-22T10:20:45.833Z,77.43
2022-10-22T10:21:45.822Z,77.67
2022-10-22T10:22:45.821Z,77.80
2022-10-22T10:23:45.795Z,76.96
2022-10-22T10:24:45.782Z,75.27
2022-10-22T10:25:45.772Z,74.34
2022-10-22T10:26:45.767Z,74.10
2022-10-22T10:27:45.794Z,73.27
2022-10-22T10:28:45.759Z,72.43
2022-10-22T10:29:45.756Z,71.30
2022-10-22T10:30:45.747Z,71.30
2022-10-22T10:31:45.739Z,70.16
2022-10-22T10:32:45.735Z,69.39
2022-10-22T10:33:45.750Z,67.69
2022-10-22T10:34:45.761Z,65.64
2022-10-22T10:35:45.720Z,65.94
2022-10-22T10:36:45.721Z,64.41
2022-10-22T10:37:45.904Z,64.84
2022-10-22T10:38:45.756Z,60.82
2022-10-22T10:39:45.683Z,56.80
2022-10-22T10:40:45.689Z,54.91
2022-10-22T10:41:45.692Z,54.17
2022-10-22T10:42:45.664Z,51.84
2022-10-22T10:43:45.816Z,50.71
2022-10-22T10:44:45.749Z,51.07
2022-10-22T10:45:45.633Z,51.67
2022-10-22T10:46:45.655Z,49.96
2022-10-22T10:47:45.643Z,51.92
2022-10-22T10:48:45.626Z,52.36
2022-10-22T10:49:45.638Z,48.41
2022-10-22T10:50:45.602Z,48.05
2022-10-22T10:51:45.598Z,48.66
2022-10-22T10:52:45.619Z,48.24
2022-10-22T10:53:45.588Z,50.46
2022-10-22T10:54:45.629Z,49.01
2022-10-22T10:55:45.584Z,50.85
2022-10-22T10:56:45.576Z,50.09
2022-10-22T10:57:46.094Z,51.25
2022-10-22T10:58:45.595Z,50.90
2022-10-22T10:59:45.595Z,50.01
2022-10-22T11:00:45.555Z,49.79
2022-10-22T11:01:46.210Z,50.59
2022-10-22T11:02:45.616Z,50.48
2022-10-22T11:03:45.554Z,50.31
2022-10-22T11:04:45.557Z,51.03
2022-10-22T11:05:45.547Z,52.66
2022-10-22T11:06:45.514Z,51.75
2022-10-22T11:07:45.654Z,50.90
2022-10-22T11:08:45.585Z,51.00
2022-10-22T11:09:45.561Z,49.25
2022-10-22T11:10:45.493Z,50.01
2022-10-22T11:11:45.488Z,50.16
2022-10-22T11:12:45.506Z,47.38
2022-10-22T11:13:45.465Z,47.85
2022-10-22T11:14:45.477Z,47.45
2022-10-22T11:15:45.529Z,47.88
2022-10-22T11:16:45.443Z,46.28
2022-10-22T11:17:45.452Z,46.44
2022-10-22T11:18:45.449Z,48.32
2022-10-22T11:19:51.537Z,46.89
2022-10-22T11:20:47.443Z,46.72
2022-10-22T11:21:45.440Z,46.94
2022-10-22T11:23:13.279Z,46.88
2022-10-22T11:23:47.479Z,48.27
2022-10-22T11:24:45.433Z,48.49
2022-10-22T11:25:45.401Z,47.60
2022-10-22T11:26:45.398Z,50.58
2022-10-22T11:28:18.003Z,53.19
2022-10-22T11:28:45.382Z,54.22
2022-10-22T11:29:45.370Z,51.35
2022-10-22T11:30:45.405Z,49.79
2022-10-22T11:31:46.140Z,48.90
2022-10-22T11:32:45.352Z,49.42
2022-10-22T11:33:45.362Z,47.87
2022-10-22T11:34:45.403Z,45.93
2022-10-22T11:35:45.338Z,46.64
2022-10-22T11:36:45.348Z,47.57
2022-10-22T11:37:45.341Z,49.15
2022-10-22T11:38:45.304Z,47.85
2022-10-22T11:39:45.329Z,47.43
2022-10-22T11:40:45.320Z,49.22
2022-10-22T11:41:46.306Z,50.04
2022-10-22T11:42:45.270Z,49.79
2022-10-22T11:43:45.294Z,48.24
2022-10-22T11:44:45.312Z,48.44
2022-10-22T11:45:45.313Z,48.28
2022-10-22T11:46:45.295Z,51.07
2022-10-22T11:47:45.275Z,52.04
2022-10-22T11:48:46.063Z,50.83
2022-10-22T11:49:45.263Z,50.66
2022-10-22T11:50:45.238Z,50.24
2022-10-22T11:51:46.125Z,49.22
2022-10-22T11:52:45.212Z,49.02
2022-10-22T11:53:45.196Z,50.01
2022-10-22T11:54:45.234Z,49.48
2022-10-22T11:55:45.206Z,48.88
2022-10-22T11:56:45.205Z,50.16
2022-10-22T11:57:45.182Z,52.91
2022-10-22T11:58:45.176Z,53.60
2022-10-22T11:59:45.176Z,54.20
2022-10-22T12:00:45.166Z,54.35
2022-10-22T12:01:45.243Z,55.29
2022-10-22T12:02:45.347Z,55.24
2022-10-22T12:03:45.145Z,55.36
2022-10-22T12:04:45.275Z,54.25
2022-10-22T12:05:45.120Z,52.56
2022-10-22T12:06:45.144Z,50.63
2022-10-22T12:07:45.114Z,51.82
2022-10-22T12:08:45.150Z,54.40
2022-10-22T12:09:45.124Z,55.97
2022-10-22T12:10:45.107Z,57.82
2022-10-22T12:11:45.093Z,58.47
2022-10-22T12:12:45.121Z,60.52
2022-10-22T12:13:45.084Z,61.29
2022-10-22T12:14:45.079Z,59.47
2022-10-22T12:15:45.195Z,60.65
2022-10-22T12:16:55.613Z,62.18
2022-10-22T12:17:47.081Z,62.48
2022-10-22T12:18:45.057Z,63.27
2022-10-22T12:19:45.045Z,62.60
2022-10-22T12:20:45.047Z,63.30
2022-10-22T12:21:45.056Z,64.20
2022-10-22T12:22:45.044Z,62.84
2022-10-22T12:23:45.201Z,59.78
2022-10-22T12:24:45.046Z,56.53
2022-10-22T12:25:46.006Z,53.16
2022-10-22T12:26:45.006Z,51.47
2022-10-22T12:27:45.075Z,53.73
2022-10-22T12:28:45.027Z,53.85
2022-10-22T12:29:45.036Z,53.38
2022-10-22T12:30:44.970Z,52.59
2022-10-22T12:31:44.957Z,53.66
2022-10-22T12:32:44.971Z,55.05
2022-10-22T12:33:44.950Z,56.32
2022-10-22T12:34:45.137Z,58.24
2022-10-22T12:35:45.629Z,56.21
2022-10-22T12:36:44.934Z,53.31
2022-10-22T12:37:45.194Z,51.75
2022-10-22T12:38:44.933Z,50.04
2022-10-22T12:39:44.906Z,49.10
2022-10-22T12:40:47.684Z,49.91
2022-10-22T12:41:44.935Z,50.48
2022-10-22T12:42:44.881Z,52.29
2022-10-22T12:43:44.878Z,52.07
2022-10-22T12:44:44.913Z,51.07
2022-10-22T12:45:44.884Z,51.67
2022-10-22T12:46:44.895Z,52.61
2022-10-22T12:47:44.861Z,52.07
2022-10-22T12:48:44.889Z,50.95
2022-10-22T12:49:44.902Z,53.08
2022-10-22T12:50:44.866Z,55.38
2022-10-22T12:51:44.844Z,57.87
2022-10-22T12:52:44.845Z,56.77
2022-10-22T12:53:44.865Z,54.21
2022-10-22T12:54:44.833Z,54.15
2022-10-22T12:55:44.826Z,53.26
2022-10-22T12:56:44.813Z,53.61
2022-10-22T12:57:44.827Z,54.60
2022-10-22T12:58:44.827Z,53.06
2022-10-22T12:59:48.824Z,53.83
2022-10-22T13:00:46.889Z,56.72
2022-10-22T13:01:44.788Z,54.46
2022-10-22T13:02:44.786Z,54.43
2022-10-22T13:03:44.801Z,54.55
2022-10-22T13:04:44.801Z,56.72
2022-10-22T13:05:44.764Z,58.17
2022-10-22T13:06:46.124Z,59.95
2022-10-22T13:07:44.760Z,61.44
2022-10-22T13:08:46.733Z,60.78
2022-10-22T13:09:44.737Z,60.74
2022-10-22T13:10:44.736Z,61.36
2022-10-22T13:11:44.738Z,61.29
2022-10-22T13:12:44.721Z,62.52
2022-10-22T13:13:44.763Z,62.82
2022-10-22T13:14:44.736Z,63.06
2022-10-22T13:15:44.701Z,64.18
2022-10-22T13:16:44.714Z,65.28
2022-10-22T13:17:45.061Z,65.62
2022-10-22T13:18:44.713Z,65.82
2022-10-22T13:19:44.700Z,66.32
2022-10-22T13:20:44.688Z,65.62
2022-10-22T13:21:44.675Z,66.42
2022-10-22T13:22:44.657Z,66.42
2022-10-22T13:23:44.768Z,66.42
2022-10-22T13:24:45.056Z,66.09
2022-10-22T13:25:44.661Z,66.12
2022-10-22T13:26:44.623Z,66.22
2022-10-22T13:27:44.662Z,66.75
2022-10-22T13:28:44.623Z,67.55
2022-10-22T13:29:44.628Z,66.82
2022-10-22T13:30:44.589Z,66.12
2022-10-22T13:31:44.686Z,66.52
2022-10-22T13:32:44.606Z,67.22
2022-10-22T13:33:44.649Z,66.55
2022-10-22T13:34:44.831Z,67.55
2022-10-22T13:35:45.668Z,67.76
2022-10-22T13:36:44.597Z,67.35
2022-10-22T13:37:44.593Z,68.22
2022-10-22T13:38:44.565Z,67.35
2022-10-22T13:39:44.553Z,68.22
2022-10-22T13:40:44.547Z,68.29
2022-10-22T13:41:44.549Z,67.92
2022-10-22T13:42:44.812Z,67.82
2022-10-22T13:43:44.523Z,68.82
2022-10-22T13:44:44.545Z,67.76
2022-10-22T13:45:44.512Z,68.26
2022-10-22T13:46:44.512Z,67.22
2022-10-22T13:47:44.501Z,67.76
2022-10-22T13:48:44.521Z,67.96
2022-10-22T13:49:44.656Z,67.82
2022-10-22T13:50:44.489Z,67.72
2022-10-22T13:51:44.473Z,68.15
2022-10-22T13:52:44.523Z,67.52
2022-10-22T13:53:44.482Z,67.19
2022-10-22T13:54:46.905Z,66.39
2022-10-22T13:55:44.453Z,66.69
2022-10-22T13:56:44.497Z,66.78
2022-10-22T13:57:44.476Z,66.69
2022-10-22T13:58:44.473Z,66.78
2022-10-22T13:59:44.465Z,66.75
2022-10-22T14:00:44.584Z,65.89
2022-10-22T14:01:44.498Z,66.16
2022-10-22T14:02:44.539Z,65.95
2022-10-22T14:03:44.451Z,66.46
2022-10-22T14:04:44.419Z,66.28
2022-10-22T14:05:44.412Z,66.69
2022-10-22T14:06:44.421Z,66.69
2022-10-22T14:07:44.667Z,66.49
2022-10-22T14:08:44.467Z,66.78
2022-10-22T14:09:44.375Z,67.02
2022-10-22T14:10:44.475Z,66.75
2022-10-22T14:11:44.407Z,65.92
2022-10-22T14:12:44.384Z,64.29
2022-10-22T14:13:44.359Z,65.26
2022-10-22T14:14:44.437Z,64.66
2022-10-22T14:15:44.363Z,65.99
2022-10-22T14:16:44.372Z,65.92
2022-10-22T14:17:44.578Z,65.52
2022-10-22T14:18:44.340Z,66.63
2022-10-22T14:19:44.340Z,66.63
2022-10-22T14:20:44.310Z,66.55
2022-10-22T14:21:44.328Z,66.96
2022-10-22T14:22:44.300Z,66.96
2022-10-22T14:23:44.316Z,67.46
2022-10-22T14:24:44.292Z,68.32
2022-10-22T14:25:44.374Z,67.49
2022-10-22T14:26:44.349Z,67.99
2022-10-22T14:27:44.409Z,67.99
2022-10-22T14:29:07.974Z,67.89
2022-10-22T14:29:46.269Z,67.79
2022-10-22T14:30:44.259Z,67.55
2022-10-22T14:31:44.890Z,67.49
2022-10-22T14:32:44.321Z,68.39
2022-10-22T14:33:44.229Z,68.09
2022-10-22T14:34:44.238Z,68.12
2022-10-22T14:35:44.223Z,68.42
2022-10-22T14:36:44.411Z,67.79
2022-10-22T14:37:45.292Z,67.86
2022-10-22T14:38:44.214Z,67.89
2022-10-22T14:39:44.221Z,67.79
2022-10-22T14:40:44.209Z,68.09
2022-10-22T14:41:44.203Z,67.59
2022-10-22T14:42:44.415Z,68.19
2022-10-22T14:43:44.172Z,67.72
2022-10-22T14:44:44.205Z,67.82
2022-10-22T14:45:44.224Z,68.65
2022-10-22T14:46:44.469Z,69.35
2022-10-22T14:47:44.168Z,68.76
2022-10-22T14:48:44.160Z,68.15
2022-10-22T14:49:44.280Z,68.73
2022-10-22T14:50:45.163Z,67.59
2022-10-22T14:51:44.134Z,66.09
2022-10-22T14:52:44.547Z,65.03
2022-10-22T14:53:44.126Z,63.70
2022-10-22T14:54:44.141Z,63.27
2022-10-22T14:55:44.139Z,63.47
2022-10-22T14:56:44.107Z,62.57
2022-10-22T14:57:44.562Z,62.87
2022-10-22T14:58:44.093Z,63.40
2022-10-22T14:59:44.101Z,62.48
2022-10-22T15:00:44.102Z,62.97
2022-10-22T15:01:44.070Z,63.89
2022-10-22T15:02:44.444Z,65.22
2022-10-22T15:03:44.057Z,65.33
2022-10-22T15:04:44.054Z,66.22
2022-10-22T15:05:44.430Z,65.26
2022-10-22T15:06:44.042Z,65.39
2022-10-22T15:07:44.364Z,64.56
2022-10-22T15:08:44.102Z,63.63
2022-10-22T15:09:44.035Z,63.43
2022-10-22T15:10:44.013Z,63.53
2022-10-22T15:11:44.027Z,64.06
2022-10-22T15:12:43.995Z,65.16
2022-10-22T15:13:43.995Z,65.72
2022-10-22T15:14:44.007Z,65.92
2022-10-22T15:15:43.979Z,66.96
2022-10-22T15:16:44.023Z,67.19
2022-10-22T15:17:44.274Z,67.42
2022-10-22T15:18:43.955Z,67.82
2022-10-22T15:19:44.011Z,68.26
2022-10-22T15:20:43.975Z,68.76
2022-10-22T15:21:43.968Z,68.42
2022-10-22T15:22:44.194Z,68.62
2022-10-22T15:23:43.922Z,67.55
2022-10-22T15:24:43.946Z,67.02
2022-10-22T15:25:43.916Z,66.86
2022-10-22T15:26:43.902Z,66.42
2022-10-22T15:27:47.589Z,65.59
2022-10-22T15:28:45.890Z,65.39
2022-10-22T15:29:43.878Z,65.49
2022-10-22T15:30:43.889Z,65.59
2022-10-22T15:31:43.962Z,65.79
2022-10-22T15:32:44.064Z,64.39
2022-10-22T15:33:43.865Z,66.36
2022-10-22T15:34:43.869Z,67.29
2022-10-22T15:35:43.889Z,67.72
2022-10-22T15:36:43.842Z,68.32
2022-10-22T15:37:43.965Z,68.46
2022-10-22T15:38:43.837Z,69.06
2022-10-22T15:39:43.856Z,69.46
2022-10-22T15:40:43.821Z,70.36
2022-10-22T15:41:43.813Z,69.66
2022-10-22T15:42:44.033Z,70.29
2022-10-22T15:43:44.663Z,70.39
2022-10-22T15:44:43.803Z,70.19
2022-10-22T15:45:43.790Z,70.32
2022-10-22T15:46:43.891Z,70.63
2022-10-22T15:47:47.305Z,70.93
2022-10-22T15:48:44.809Z,70.73
2022-10-22T15:49:43.775Z,71.97
2022-10-22T15:50:43.806Z,72.30
2022-10-22T15:51:43.755Z,71.86
2022-10-22T15:52:43.747Z,72.20
2022-10-22T15:53:43.810Z,72.80
2022-10-22T15:54:43.873Z,72.17
2022-10-22T15:55:43.755Z,72.40
2022-10-22T15:56:43.775Z,73.68
2022-10-22T15:57:44.463Z,74.21
2022-10-22T15:58:43.847Z,75.29
2022-10-22T15:59:43.761Z,73.98
2022-10-22T16:00:43.792Z,74.08
2022-10-22T16:01:43.717Z,75.22
2022-10-22T16:02:43.717Z,75.02
2022-10-22T16:03:43.736Z,75.09
2022-10-22T16:04:43.687Z,74.08
2022-10-22T16:05:43.729Z,75.26
2022-10-22T16:06:43.691Z,75.86
2022-10-22T16:07:44.038Z,76.26
2022-10-22T16:08:43.738Z,76.30
2022-10-22T16:09:43.669Z,76.46
2022-10-22T16:10:43.649Z,76.06
2022-10-22T16:11:43.699Z,76.06
2022-10-22T16:12:43.748Z,76.56
2022-10-22T16:13:43.661Z,76.97
2022-10-22T16:14:43.636Z,77.00
2022-10-22T16:15:43.601Z,76.70
2022-10-22T16:16:43.627Z,76.94
2022-10-22T16:17:43.600Z,77.55
2022-10-22T16:18:43.584Z,77.40
2022-10-22T16:19:43.856Z,77.55
2022-10-22T16:20:43.611Z,77.34
2022-10-22T16:21:43.704Z,77.44
2022-10-22T16:22:43.713Z,78.08
2022-10-22T16:23:43.553Z,78.59
2022-10-22T16:24:43.569Z,78.89
2022-10-22T16:25:43.552Z,78.59
2022-10-22T16:26:43.664Z,78.28
2022-10-22T16:27:44.188Z,78.39
2022-10-22T16:28:43.520Z,78.28
2022-10-22T16:29:43.490Z,78.83
2022-10-22T16:30:43.522Z,78.92
2022-10-22T16:31:43.534Z,78.72
2022-10-22T16:32:43.742Z,78.42
2022-10-22T16:33:46.453Z,78.32
2022-10-22T16:34:45.488Z,78.52
2022-10-22T16:35:43.504Z,79.03
2022-10-22T16:36:43.479Z,79.47
2022-10-22T16:37:43.986Z,78.92
2022-10-22T16:38:43.446Z,79.23
2022-10-22T16:39:43.470Z,79.03
2022-10-22T16:40:43.486Z,79.03
2022-10-22T16:41:43.488Z,78.83
2022-10-22T16:42:43.433Z,78.52
2022-10-22T16:43:43.412Z,78.83
2022-10-22T16:44:43.404Z,79.16
2022-10-22T16:45:43.448Z,79.23
2022-10-22T16:46:43.415Z,78.92
2022-10-22T16:47:43.555Z,78.63
2022-10-22T16:48:43.432Z,79.16
2022-10-22T16:49:43.508Z,79.36
2022-10-22T16:50:43.432Z,79.27
2022-10-22T16:51:43.356Z,79.77
2022-10-22T16:52:43.381Z,79.97
2022-10-22T16:53:43.377Z,79.77
2022-10-22T16:54:43.332Z,79.67
2022-10-22T16:55:43.312Z,79.77
2022-10-22T16:56:43.333Z,79.61
2022-10-22T16:57:43.610Z,80.41
2022-10-22T16:58:43.309Z,80.51
2022-10-22T16:59:43.301Z,80.35
2022-10-22T17:00:43.390Z,80.96
2022-10-22T17:01:43.345Z,80.55
2022-10-22T17:02:43.658Z,80.76
2022-10-22T17:03:43.282Z,81.30
2022-10-22T17:04:43.262Z,81.03
2022-10-22T17:05:43.281Z,82.12
2022-10-22T17:06:43.256Z,83.94
2022-10-22T17:07:43.244Z,84.08
2022-10-22T17:08:43.361Z,84.12
2022-10-22T17:09:43.252Z,85.07
2022-10-22T17:10:43.259Z,85.33
2022-10-22T17:11:44.943Z,85.24
2022-10-22T17:12:43.489Z,84.83
2022-10-22T17:13:43.214Z,85.07
2022-10-22T17:14:43.433Z,85.78
2022-10-22T17:15:43.226Z,85.74
2022-10-22T17:16:43.206Z,85.07
2022-10-22T17:17:43.212Z,85.03
2022-10-22T17:18:43.270Z,85.07
2022-10-22T17:19:43.197Z,84.97
2022-10-22T17:20:43.247Z,85.17
2022-10-22T17:21:43.229Z,84.97
2022-10-22T17:22:43.559Z,85.27
2022-10-22T17:23:43.161Z,85.38
2022-10-22T17:24:43.446Z,85.48
2022-10-22T17:25:43.258Z,85.27
2022-10-22T17:26:43.154Z,85.27
2022-10-22T17:27:43.450Z,85.03
2022-10-22T17:28:43.676Z,84.83
2022-10-22T17:29:43.112Z,84.22
2022-10-22T17:30:43.121Z,84.77
2022-10-22T17:31:43.211Z,85.27
2022-10-22T17:32:43.167Z,84.67
2022-10-22T17:33:43.080Z,85.24
2022-10-22T17:34:43.082Z,84.67
2022-10-22T17:35:43.063Z,84.83
2022-10-22T17:36:43.093Z,84.42
2022-10-22T17:37:43.491Z,84.73
2022-10-22T17:38:43.065Z,83.92
2022-10-22T17:39:43.063Z,84.77
2022-10-22T17:40:43.299Z,84.87
2022-10-22T17:41:43.055Z,85.03
2022-10-22T17:42:43.297Z,84.93
2022-10-22T17:43:43.079Z,85.03